sensor_id;sensor_type;location;lat;lon;timestamp;pressure;altitude;pressure_sealevel;temperature;humidity
71966;BME280;59836;52.132;5.442;2023-04-21T00:02:03;101658.16;;;9.16;78.87
71966;BME280;59836;52.132;5.442;2023-04-21T00:04:30;101657.00;;;9.12;79.28
71966;BME280;59836;52.132;5.442;2023-04-21T00:06:58;101654.53;;;9.11;79.54
71966;BME280;59836;52.132;5.442;2023-04-21T00:09:29;101642.06;;;9.10;80.18
71966;BME280;59836;52.132;5.442;2023-04-21T00:12:04;101638.78;;;9.08;79.94
71966;BME280;59836;52.132;5.442;2023-04-21T00:14:30;101650.91;;;9.05;80.87
71966;BME280;59836;52.132;5.442;2023-04-21T00:16:58;101648.44;;;9.04;80.79
71966;BME280;59836;52.132;5.442;2023-04-21T00:19:33;101635.72;;;9.04;81.55
71966;BME280;59836;52.132;5.442;2023-04-21T00:22:00;101627.28;;;9.00;81.46
71966;BME280;59836;52.132;5.442;2023-04-21T00:24:27;101632.34;;;8.97;81.49
71966;BME280;59836;52.132;5.442;2023-04-21T00:26:57;101630.72;;;8.96;82.27
71966;BME280;59836;52.132;5.442;2023-04-21T00:29:24;101624.13;;;8.92;82.53
71966;BME280;59836;52.132;5.442;2023-04-21T00:31:51;101634.59;;;8.88;82.84
71966;BME280;59836;52.132;5.442;2023-04-21T00:34:17;101624.03;;;8.86;82.90
71966;BME280;59836;52.132;5.442;2023-04-21T00:36:44;101630.50;;;8.85;83.19
71966;BME280;59836;52.132;5.442;2023-04-21T00:39:23;101631.31;;;8.86;83.30
71966;BME280;59836;52.132;5.442;2023-04-21T00:41:49;101624.03;;;8.86;83.89
71966;BME280;59836;52.132;5.442;2023-04-21T00:44:16;101618.63;;;8.86;83.70
71966;BME280;59836;52.132;5.442;2023-04-21T00:46:55;101618.84;;;8.85;84.00
71966;BME280;59836;52.132;5.442;2023-04-21T00:49:23;101618.25;;;8.83;84.15
71966;BME280;59836;52.132;5.442;2023-04-21T00:52:05;101607.69;;;8.81;84.12
71966;BME280;59836;52.132;5.442;2023-04-21T00:54:34;101612.53;;;8.79;84.78
71966;BME280;59836;52.132;5.442;2023-04-21T00:57:01;101605.22;;;8.80;84.45
71966;BME280;59836;52.132;5.442;2023-04-21T01:02:40;101592.53;;;8.80;84.80
71966;BME280;59836;52.132;5.442;2023-04-21T01:05:15;101600.63;;;8.80;84.69
71966;BME280;59836;52.132;5.442;2023-04-21T01:07:48;101595.22;;;8.80;85.35
71966;BME280;59836;52.132;5.442;2023-04-21T01:10:17;101590.41;;;8.82;85.57
71966;BME280;59836;52.132;5.442;2023-04-21T01:12:56;101587.34;;;8.79;85.08
71966;BME280;59836;52.132;5.442;2023-04-21T01:15:23;101579.81;;;8.81;85.72
71966;BME280;59836;52.132;5.442;2023-04-21T01:17:52;101584.41;;;8.80;85.75
71966;BME280;59836;52.132;5.442;2023-04-21T01:20:50;101576.28;;;8.80;85.96
71966;BME280;59836;52.132;5.442;2023-04-21T01:23:17;101572.16;;;8.78;86.33
71966;BME280;59836;52.132;5.442;2023-04-21T01:25:46;101572.44;;;8.76;86.40
71966;BME280;59836;52.132;5.442;2023-04-21T01:28:24;101578.41;;;8.78;85.82
71966;BME280;59836;52.132;5.442;2023-04-21T01:30:52;101572.44;;;8.76;86.30
71966;BME280;59836;52.132;5.442;2023-04-21T01:33:19;101572.44;;;8.76;86.44
71966;BME280;59836;52.132;5.442;2023-04-21T01:35:47;101566.19;;;8.76;86.70
71966;BME280;59836;52.132;5.442;2023-04-21T01:38:17;101569.72;;;8.76;86.88
71966;BME280;59836;52.132;5.442;2023-04-21T01:40:47;101569.47;;;8.78;86.75
71966;BME280;59836;52.132;5.442;2023-04-21T01:43:16;101559.97;;;8.75;86.99
71966;BME280;59836;52.132;5.442;2023-04-21T01:49:33;101551.25;;;8.73;87.11
71966;BME280;59836;52.132;5.442;2023-04-21T01:51:59;101545.84;;;8.73;87.26
71966;BME280;59836;52.132;5.442;2023-04-21T01:54:26;101542.91;;;8.75;87.51
71966;BME280;59836;52.132;5.442;2023-04-21T01:56:52;101544.78;;;8.74;87.41
71966;BME280;59836;52.132;5.442;2023-04-21T01:59:20;101543.16;;;8.73;87.81
71966;BME280;59836;52.132;5.442;2023-04-21T02:01:47;101551.84;;;8.75;87.71
71966;BME280;59836;52.132;5.442;2023-04-21T02:04:17;101558.31;;;8.74;87.30
71966;BME280;59836;52.132;5.442;2023-04-21T02:06:45;101557.25;;;8.75;87.66
71966;BME280;59836;52.132;5.442;2023-04-21T02:09:11;101549.94;;;8.76;88.07
71966;BME280;59836;52.132;5.442;2023-04-21T02:11:38;101555.84;;;8.73;87.81
71966;BME280;59836;52.132;5.442;2023-04-21T02:14:04;101562.56;;;8.70;88.10
71966;BME280;59836;52.132;5.442;2023-04-21T02:16:38;101565.84;;;8.72;88.17
71966;BME280;59836;52.132;5.442;2023-04-21T02:19:14;101555.84;;;8.73;88.19
71966;BME280;59836;52.132;5.442;2023-04-21T02:21:41;101553.97;;;8.73;88.73
71966;BME280;59836;52.132;5.442;2023-04-21T02:24:16;101549.63;;;8.72;88.03
71966;BME280;59836;52.132;5.442;2023-04-21T02:26:42;101547.97;;;8.71;88.61
71966;BME280;59836;52.132;5.442;2023-04-21T02:29:09;101545.50;;;8.69;88.29
71966;BME280;59836;52.132;5.442;2023-04-21T02:31:35;101550.56;;;8.66;88.91
71966;BME280;59836;52.132;5.442;2023-04-21T02:34:38;101541.41;;;8.67;88.76
71966;BME280;59836;52.132;5.442;2023-04-21T02:37:07;101553.88;;;8.68;88.89
71966;BME280;59836;52.132;5.442;2023-04-21T02:39:56;101546.81;;;8.67;88.81
71966;BME280;59836;52.132;5.442;2023-04-21T02:42:22;101544.09;;;8.67;89.20
71966;BME280;59836;52.132;5.442;2023-04-21T02:44:48;101543.03;;;8.68;89.31
71966;BME280;59836;52.132;5.442;2023-04-21T02:47:31;101550.09;;;8.69;89.03
71966;BME280;59836;52.132;5.442;2023-04-21T02:50:04;101537.63;;;8.68;89.23
71966;BME280;59836;52.132;5.442;2023-04-21T02:52:35;101545.50;;;8.69;89.58
71966;BME280;59836;52.132;5.442;2023-04-21T02:55:02;101542.22;;;8.67;89.57
71966;BME280;59836;52.132;5.442;2023-04-21T02:57:29;101525.19;;;8.67;89.37
71966;BME280;59836;52.132;5.442;2023-04-21T02:59:55;101531.41;;;8.67;89.66
71966;BME280;59836;52.132;5.442;2023-04-21T03:02:22;101533.03;;;8.68;89.88
71966;BME280;59836;52.132;5.442;2023-04-21T03:04:48;101525.97;;;8.67;89.65
71966;BME280;59836;52.132;5.442;2023-04-21T03:07:16;101526.81;;;8.68;89.99
71966;BME280;59836;52.132;5.442;2023-04-21T03:09:42;101527.63;;;8.68;89.77
71966;BME280;59836;52.132;5.442;2023-04-21T03:12:12;101530.34;;;8.68;89.43
71966;BME280;59836;52.132;5.442;2023-04-21T03:14:46;101527.63;;;8.68;89.55
71966;BME280;59836;52.132;5.442;2023-04-21T03:17:12;101531.41;;;8.67;89.86
71966;BME280;59836;52.132;5.442;2023-04-21T03:19:45;101535.75;;;8.68;89.91
71966;BME280;59836;52.132;5.442;2023-04-21T03:22:11;101533.28;;;8.67;90.29
71966;BME280;59836;52.132;5.442;2023-04-21T03:24:37;101515.66;;;8.64;90.22
71966;BME280;59836;52.132;5.442;2023-04-21T03:27:04;101515.66;;;8.64;89.81
71966;BME280;59836;52.132;5.442;2023-04-21T03:29:31;101520.25;;;8.64;90.03
71966;BME280;59836;52.132;5.442;2023-04-21T03:31:57;101537.28;;;8.64;90.06
71966;BME280;59836;52.132;5.442;2023-04-21T03:34:35;101513.19;;;8.63;90.11
71966;BME280;59836;52.132;5.442;2023-04-21T03:37:01;101539.19;;;8.64;89.97
71966;BME280;59836;52.132;5.442;2023-04-21T03:39:30;101510.50;;;8.63;90.36
71966;BME280;59836;52.132;5.442;2023-04-21T03:42:11;101524.00;;;8.63;90.49
71966;BME280;59836;52.132;5.442;2023-04-21T03:48:27;101517.78;;;8.62;90.62
71966;BME280;59836;52.132;5.442;2023-04-21T03:50:54;101505.31;;;8.61;90.70
71966;BME280;59836;52.132;5.442;2023-04-21T03:53:39;101499.09;;;8.61;90.60
71966;BME280;59836;52.132;5.442;2023-04-21T03:56:06;101507.78;;;8.63;90.74
71966;BME280;59836;52.132;5.442;2023-04-21T03:58:40;101494.50;;;8.61;90.64
71966;BME280;59836;52.132;5.442;2023-04-21T04:01:07;101498.03;;;8.62;90.79
71966;BME280;59836;52.132;5.442;2023-04-21T04:03:33;101505.31;;;8.61;91.20
71966;BME280;59836;52.132;5.442;2023-04-21T04:06:02;101509.06;;;8.60;90.78
71966;BME280;59836;52.132;5.442;2023-04-21T04:08:30;101510.72;;;8.61;91.47
71966;BME280;59836;52.132;5.442;2023-04-21T04:10:57;101505.88;;;8.63;90.74
71966;BME280;59836;52.132;5.442;2023-04-21T04:13:24;101494.00;;;8.64;90.63
71966;BME280;59836;52.132;5.442;2023-04-21T04:15:52;101491.09;;;8.66;90.92
71966;BME280;59836;52.132;5.442;2023-04-21T04:18:37;101488.38;;;8.66;90.60
71966;BME280;59836;52.132;5.442;2023-04-21T04:21:12;101484.84;;;8.65;91.12
71966;BME280;59836;52.132;5.442;2023-04-21T04:23:41;101491.91;;;8.66;91.40
71966;BME280;59836;52.132;5.442;2023-04-21T04:26:11;101477.56;;;8.66;91.25
71966;BME280;59836;52.132;5.442;2023-04-21T04:28:44;101488.97;;;8.68;90.96
71966;BME280;59836;52.132;5.442;2023-04-21T04:31:11;101498.13;;;8.67;91.17
71966;BME280;59836;52.132;5.442;2023-04-21T04:33:42;101498.13;;;8.67;91.43
71966;BME280;59836;52.132;5.442;2023-04-21T04:36:18;101492.72;;;8.67;91.36
71966;BME280;59836;52.132;5.442;2023-04-21T04:38:45;101496.00;;;8.69;91.37
71966;BME280;59836;52.132;5.442;2023-04-21T04:41:12;101492.25;;;8.70;91.19
71966;BME280;59836;52.132;5.442;2023-04-21T04:43:38;101494.94;;;8.70;91.36
71966;BME280;59836;52.132;5.442;2023-04-21T04:46:05;101488.97;;;8.68;91.35
71966;BME280;59836;52.132;5.442;2023-04-21T04:48:31;101494.13;;;8.69;91.30
71966;BME280;59836;52.132;5.442;2023-04-21T04:51:11;101476.03;;;8.70;91.13
71966;BME280;59836;52.132;5.442;2023-04-21T04:53:43;101481.75;;;8.74;91.52
71966;BME280;59836;52.132;5.442;2023-04-21T04:56:09;101479.31;;;8.72;90.97
71966;BME280;59836;52.132;5.442;2023-04-21T04:58:51;101488.47;;;8.71;91.07
71966;BME280;59836;52.132;5.442;2023-04-21T05:01:17;101483.06;;;8.71;91.54
71966;BME280;59836;52.132;5.442;2023-04-21T05:03:45;101483.66;;;8.73;90.88
71966;BME280;59836;52.132;5.442;2023-04-21T05:06:12;101491.78;;;8.73;91.38
71966;BME280;59836;52.132;5.442;2023-04-21T05:08:39;101502.59;;;8.73;91.61
71966;BME280;59836;52.132;5.442;2023-04-21T05:11:15;101496.13;;;8.74;91.64
71966;BME280;59836;52.132;5.442;2023-04-21T05:13:45;101497.75;;;8.75;91.37
71966;BME280;59836;52.132;5.442;2023-04-21T05:16:33;101500.47;;;8.75;91.15
71966;BME280;59836;52.132;5.442;2023-04-21T05:19:01;101491.28;;;8.76;91.79
71966;BME280;59836;52.132;5.442;2023-04-21T05:21:29;101502.09;;;8.76;91.85
71966;BME280;59836;52.132;5.442;2023-04-21T05:24:18;101505.38;;;8.78;91.84
71966;BME280;59836;52.132;5.442;2023-04-21T05:26:49;101512.44;;;8.79;91.63
71966;BME280;59836;52.132;5.442;2023-04-21T05:29:23;101507.03;;;8.79;92.29
71966;BME280;59836;52.132;5.442;2023-04-21T05:31:49;101503.00;;;8.82;92.15
71966;BME280;59836;52.132;5.442;2023-04-21T05:34:16;101497.38;;;8.83;92.16
71966;BME280;59836;52.132;5.442;2023-04-21T05:36:42;101500.66;;;8.85;92.44
71966;BME280;59836;52.132;5.442;2023-04-21T05:39:19;101503.94;;;8.88;92.35
71966;BME280;59836;52.132;5.442;2023-04-21T05:41:54;101517.00;;;8.91;91.94
71966;BME280;59836;52.132;5.442;2023-04-21T05:44:20;101525.31;;;8.89;92.03
71966;BME280;59836;52.132;5.442;2023-04-21T05:46:52;101521.56;;;8.90;92.02
71966;BME280;59836;52.132;5.442;2023-04-21T05:49:18;101533.44;;;8.89;92.59
71966;BME280;59836;52.132;5.442;2023-04-21T05:52:07;101533.53;;;8.94;92.54
71966;BME280;59836;52.132;5.442;2023-04-21T05:54:34;101533.53;;;8.94;92.78
71966;BME280;59836;52.132;5.442;2023-04-21T05:57:00;101520.00;;;8.94;92.19
71966;BME280;59836;52.132;5.442;2023-04-21T05:59:29;101532.25;;;8.97;92.56
71966;BME280;59836;52.132;5.442;2023-04-21T06:01:55;101520.13;;;8.99;92.60
71966;BME280;59836;52.132;5.442;2023-04-21T06:04:22;101515.28;;;9.01;92.84
71966;BME280;59836;52.132;5.442;2023-04-21T06:06:49;101523.16;;;9.03;92.45
71966;BME280;59836;52.132;5.442;2023-04-21T06:09:16;101532.91;;;9.04;92.68
71966;BME280;59836;52.132;5.442;2023-04-21T06:11:43;101517.25;;;9.06;92.79
71966;BME280;59836;52.132;5.442;2023-04-21T06:14:12;101522.66;;;9.06;92.58
71966;BME280;59836;52.132;5.442;2023-04-21T06:16:38;101514.31;;;9.08;92.75
71966;BME280;59836;52.132;5.442;2023-04-21T06:19:05;101511.34;;;9.09;92.88
71966;BME280;59836;52.132;5.442;2023-04-21T06:21:31;101510.88;;;9.12;92.83
71966;BME280;59836;52.132;5.442;2023-04-21T06:24:17;101514.41;;;9.13;92.81
71966;BME280;59836;52.132;5.442;2023-04-21T06:26:53;101520.63;;;9.13;92.70
71966;BME280;59836;52.132;5.442;2023-04-21T06:29:19;101522.03;;;9.16;92.63
71966;BME280;59836;52.132;5.442;2023-04-21T06:31:46;101519.66;;;9.20;92.68
71966;BME280;59836;52.132;5.442;2023-04-21T06:34:18;101524.00;;;9.21;92.54
71966;BME280;59836;52.132;5.442;2023-04-21T06:37:05;101518.09;;;9.24;92.41
71966;BME280;59836;52.132;5.442;2023-04-21T06:39:34;101515.97;;;9.26;92.93
71966;BME280;59836;52.132;5.442;2023-04-21T06:42:01;101511.72;;;9.30;92.42
71966;BME280;59836;52.132;5.442;2023-04-21T06:44:34;101509.00;;;9.30;92.64
71966;BME280;59836;52.132;5.442;2023-04-21T06:47:00;101514.19;;;9.32;92.48
71966;BME280;59836;52.132;5.442;2023-04-21T06:49:33;101512.88;;;9.34;92.48
71966;BME280;59836;52.132;5.442;2023-04-21T06:51:59;101512.38;;;9.37;92.70
71966;BME280;59836;52.132;5.442;2023-04-21T06:54:26;101508.97;;;9.42;92.91
71966;BME280;59836;52.132;5.442;2023-04-21T06:56:52;101503.53;;;9.42;93.03
71966;BME280;59836;52.132;5.442;2023-04-21T06:59:19;101498.44;;;9.45;92.78
71966;BME280;59836;52.132;5.442;2023-04-21T07:01:46;101490.41;;;9.51;92.75
71966;BME280;59836;52.132;5.442;2023-04-21T07:04:18;101491.56;;;9.55;93.10
71966;BME280;59836;52.132;5.442;2023-04-21T07:06:45;101501.63;;;9.59;92.64
71966;BME280;59836;52.132;5.442;2023-04-21T07:09:11;101497.69;;;9.67;92.88
71966;BME280;59836;52.132;5.442;2023-04-21T07:11:38;101505.66;;;9.74;93.32
71966;BME280;59836;52.132;5.442;2023-04-21T07:14:04;101503.34;;;9.83;93.34
71966;BME280;59836;52.132;5.442;2023-04-21T07:16:31;101500.22;;;9.91;93.07
71966;BME280;59836;52.132;5.442;2023-04-21T07:18:58;101501.44;;;10.00;93.72
71966;BME280;59836;52.132;5.442;2023-04-21T07:21:24;101497.75;;;10.07;92.94
71966;BME280;59836;52.132;5.442;2023-04-21T07:23:51;101488.50;;;10.08;92.50
71966;BME280;59836;52.132;5.442;2023-04-21T07:26:17;101492.63;;;10.10;92.17
71966;BME280;59836;52.132;5.442;2023-04-21T07:28:44;101505.69;;;10.13;93.02
71966;BME280;59836;52.132;5.442;2023-04-21T07:31:10;101506.25;;;10.15;92.69
71966;BME280;59836;52.132;5.442;2023-04-21T07:33:37;101507.56;;;10.13;92.37
71966;BME280;59836;52.132;5.442;2023-04-21T07:36:03;101512.47;;;10.16;91.91
71966;BME280;59836;52.132;5.442;2023-04-21T07:38:30;101507.06;;;10.16;92.50
71966;BME280;59836;52.132;5.442;2023-04-21T07:40:56;101512.47;;;10.16;92.49
71966;BME280;59836;52.132;5.442;2023-04-21T07:43:23;101504.59;;;10.14;92.25
71966;BME280;59836;52.132;5.442;2023-04-21T07:45:50;101510.34;;;10.18;92.36
71966;BME280;59836;52.132;5.442;2023-04-21T07:48:18;101509.84;;;10.21;92.27
71966;BME280;59836;52.132;5.442;2023-04-21T07:50:44;101498.50;;;10.24;92.19
71966;BME280;59836;52.132;5.442;2023-04-21T07:53:10;101505.63;;;10.30;92.26
71966;BME280;59836;52.132;5.442;2023-04-21T07:55:37;101508.66;;;10.34;91.20
71966;BME280;59836;52.132;5.442;2023-04-21T07:58:03;101504.16;;;10.40;91.31
71966;BME280;59836;52.132;5.442;2023-04-21T08:00:49;101499.91;;;10.49;91.76
71966;BME280;59836;52.132;5.442;2023-04-21T08:03:27;101501.88;;;10.54;91.77
71966;BME280;59836;52.132;5.442;2023-04-21T08:05:53;101500.25;;;10.53;91.14
71966;BME280;59836;52.132;5.442;2023-04-21T08:08:20;101494.56;;;10.54;91.63
71966;BME280;59836;52.132;5.442;2023-04-21T08:10:47;101489.19;;;10.59;91.64
71966;BME280;59836;52.132;5.442;2023-04-21T08:13:13;101494.91;;;10.63;90.82
71966;BME280;59836;52.132;5.442;2023-04-21T08:15:40;101501.69;;;10.60;90.43
71966;BME280;59836;52.132;5.442;2023-04-21T08:18:07;101496.25;;;10.60;90.71
71966;BME280;59836;52.132;5.442;2023-04-21T08:20:34;101495.44;;;10.60;91.16
71966;BME280;59836;52.132;5.442;2023-04-21T08:23:01;101506.34;;;10.65;91.48
71966;BME280;59836;52.132;5.442;2023-04-21T08:25:27;101502.94;;;10.75;91.78
71966;BME280;59836;52.132;5.442;2023-04-21T08:27:54;101503.06;;;10.85;91.54
71966;BME280;59836;52.132;5.442;2023-04-21T08:30:20;101494.75;;;10.97;91.31
71966;BME280;59836;52.132;5.442;2023-04-21T08:32:47;101494.03;;;11.07;91.37
71966;BME280;59836;52.132;5.442;2023-04-21T08:35:13;101492.47;;;11.11;90.92
71966;BME280;59836;52.132;5.442;2023-04-21T08:37:40;101495.91;;;11.06;89.97
71966;BME280;59836;52.132;5.442;2023-04-21T08:40:07;101503.25;;;11.06;89.79
71966;BME280;59836;52.132;5.442;2023-04-21T08:42:34;101503.78;;;11.03;89.31
71966;BME280;59836;52.132;5.442;2023-04-21T08:45:04;101504.28;;;11.00;89.04
71966;BME280;59836;52.132;5.442;2023-04-21T08:47:32;101499.97;;;11.04;89.11
71966;BME280;59836;52.132;5.442;2023-04-21T08:49:58;101500.56;;;11.06;89.76
71966;BME280;59836;52.132;5.442;2023-04-21T08:52:25;101502.75;;;11.09;89.40
71966;BME280;59836;52.132;5.442;2023-04-21T08:54:52;101501.91;;;11.08;89.65
71966;BME280;59836;52.132;5.442;2023-04-21T08:57:20;101499.47;;;11.07;89.28
71966;BME280;59836;52.132;5.442;2023-04-21T08:59:47;101492.41;;;11.06;89.58
71966;BME280;59836;52.132;5.442;2023-04-21T09:02:15;101499.75;;;11.11;90.11
71966;BME280;59836;52.132;5.442;2023-04-21T09:04:45;101493.00;;;11.13;90.05
71966;BME280;59836;52.132;5.442;2023-04-21T09:07:12;101492.78;;;11.20;89.74
71966;BME280;59836;52.132;5.442;2023-04-21T09:09:55;101495.31;;;11.32;89.19
71966;BME280;59836;52.132;5.442;2023-04-21T09:12:22;101503.53;;;11.37;89.65
71966;BME280;59836;52.132;5.442;2023-04-21T09:14:49;101499.22;;;11.41;88.93
71966;BME280;59836;52.132;5.442;2023-04-21T09:17:17;101497.09;;;11.48;88.93
71966;BME280;59836;52.132;5.442;2023-04-21T09:19:44;101500.94;;;11.52;88.50
71966;BME280;59836;52.132;5.442;2023-04-21T09:22:17;101500.72;;;11.59;87.98
71966;BME280;59836;52.132;5.442;2023-04-21T09:24:47;101498.28;;;11.63;88.49
71966;BME280;59836;52.132;5.442;2023-04-21T09:27:15;101489.91;;;11.70;88.11
71966;BME280;59836;52.132;5.442;2023-04-21T09:29:46;101494.34;;;11.81;87.24
71966;BME280;59836;52.132;5.442;2023-04-21T09:32:17;101499.53;;;11.82;86.85
71966;BME280;59836;52.132;5.442;2023-04-21T09:34:48;101493.25;;;11.82;86.59
71966;BME280;59836;52.132;5.442;2023-04-21T09:37:14;101487.78;;;11.77;85.88
71966;BME280;59836;52.132;5.442;2023-04-21T09:39:45;101494.28;;;11.76;86.27
71966;BME280;59836;52.132;5.442;2023-04-21T09:42:31;101495.63;;;11.68;86.06
71966;BME280;59836;52.132;5.442;2023-04-21T09:44:57;101487.47;;;11.68;85.58
71966;BME280;59836;52.132;5.442;2023-04-21T09:47:42;101483.66;;;11.69;85.61
71966;BME280;59836;52.132;5.442;2023-04-21T09:50:11;101479.34;;;11.73;85.59
71966;BME280;59836;52.132;5.442;2023-04-21T09:52:38;101472.91;;;11.85;85.78
71966;BME280;59836;52.132;5.442;2023-04-21T09:55:11;101474.03;;;11.94;85.48
71966;BME280;59836;52.132;5.442;2023-04-21T09:57:38;101465.91;;;11.99;84.52
71966;BME280;59836;52.132;5.442;2023-04-21T10:00:08;101477.63;;;12.00;84.83
71966;BME280;59836;52.132;5.442;2023-04-21T10:02:42;101470.31;;;12.00;84.67
71966;BME280;59836;52.132;5.442;2023-04-21T10:05:10;101474.66;;;12.01;84.65
71966;BME280;59836;52.132;5.442;2023-04-21T10:07:40;101468.16;;;12.07;84.78
71966;BME280;59836;52.132;5.442;2023-04-21T10:10:14;101467.13;;;12.19;84.81
71966;BME280;59836;52.132;5.442;2023-04-21T10:12:43;101464.44;;;12.29;84.26
71966;BME280;59836;52.132;5.442;2023-04-21T10:15:48;101460.41;;;12.42;84.36
71966;BME280;59836;52.132;5.442;2023-04-21T10:18:21;101462.59;;;12.45;83.87
71966;BME280;59836;52.132;5.442;2023-04-21T10:20:55;101465.06;;;12.47;83.43
71966;BME280;59836;52.132;5.442;2023-04-21T10:26:03;101464.25;;;12.46;82.32
71966;BME280;59836;52.132;5.442;2023-04-21T10:28:58;101458.81;;;12.46;82.68
71966;BME280;59836;52.132;5.442;2023-04-21T10:31:33;101457.97;;;12.46;82.66
71966;BME280;59836;52.132;5.442;2023-04-21T10:39:31;101454.78;;;12.75;82.71
71966;BME280;59836;52.132;5.442;2023-04-21T10:42:22;101452.06;;;12.75;81.85
71966;BME280;59836;52.132;5.442;2023-04-21T10:45:00;101458.59;;;12.79;81.95
71966;BME280;59836;52.132;5.442;2023-04-21T10:50:23;101435.19;;;12.78;81.61
71966;BME280;59836;52.132;5.442;2023-04-21T10:53:10;101434.09;;;12.74;81.53
71966;BME280;59836;52.132;5.442;2023-04-21T10:55:37;101435.19;;;12.73;81.70
71966;BME280;59836;52.132;5.442;2023-04-21T10:58:06;101446.63;;;12.80;81.93
71966;BME280;59836;52.132;5.442;2023-04-21T11:00:35;101446.63;;;12.80;81.36
71966;BME280;59836;52.132;5.442;2023-04-21T11:03:05;101429.22;;;12.76;81.45
71966;BME280;59836;52.132;5.442;2023-04-21T11:08:06;101421.28;;;12.74;81.42
71966;BME280;59836;52.132;5.442;2023-04-21T11:10:53;101413.97;;;12.80;81.13
71966;BME280;59836;52.132;5.442;2023-04-21T11:13:24;101406.88;;;12.79;80.76
71966;BME280;59836;52.132;5.442;2023-04-21T11:15:55;101404.16;;;12.84;80.49
71966;BME280;59836;52.132;5.442;2023-04-21T11:18:33;101409.88;;;12.88;81.01
71966;BME280;59836;52.132;5.442;2023-04-21T11:21:15;101406.34;;;12.87;81.24
71966;BME280;59836;52.132;5.442;2023-04-21T11:23:54;101411.81;;;12.87;81.25
71966;BME280;59836;52.132;5.442;2023-04-21T11:26:30;101405.25;;;12.83;80.65
71966;BME280;59836;52.132;5.442;2023-04-21T11:29:02;101396.56;;;12.81;81.00
71966;BME280;59836;52.132;5.442;2023-04-21T11:31:29;101396.53;;;12.76;81.00
71966;BME280;59836;52.132;5.442;2023-04-21T11:33:58;101393.28;;;12.74;80.77
71966;BME280;59836;52.132;5.442;2023-04-21T11:36:24;101389.47;;;12.75;80.79
71966;BME280;59836;52.132;5.442;2023-04-21T11:38:51;101383.47;;;12.78;80.69
71966;BME280;59836;52.132;5.442;2023-04-21T11:41:23;101386.75;;;12.80;80.89
71966;BME280;59836;52.132;5.442;2023-04-21T11:43:50;101389.19;;;12.87;80.47
71966;BME280;59836;52.132;5.442;2023-04-21T11:46:24;101375.88;;;13.06;80.27
71966;BME280;59836;52.132;5.442;2023-04-21T11:48:59;101369.88;;;13.14;79.50
71966;BME280;59836;52.132;5.442;2023-04-21T11:51:31;101375.31;;;13.24;80.18
71966;BME280;59836;52.132;5.442;2023-04-21T11:53:58;101367.66;;;13.47;78.84
71966;BME280;59836;52.132;5.442;2023-04-21T11:56:25;101361.34;;;13.67;78.87
71966;BME280;59836;52.132;5.442;2023-04-21T11:58:51;101354.78;;;13.68;77.27
71966;BME280;59836;52.132;5.442;2023-04-21T12:01:19;101354.50;;;13.70;77.70
71966;BME280;59836;52.132;5.442;2023-04-21T12:03:53;101342.72;;;13.80;77.66
71966;BME280;59836;52.132;5.442;2023-04-21T12:06:25;101350.09;;;13.79;76.98
71966;BME280;59836;52.132;5.442;2023-04-21T12:08:56;101339.16;;;13.90;77.19
71966;BME280;59836;52.132;5.442;2023-04-21T12:11:26;101341.31;;;13.98;76.60
71966;BME280;59836;52.132;5.442;2023-04-21T12:13:55;101339.66;;;14.02;76.67
71966;BME280;59836;52.132;5.442;2023-04-21T12:16:26;101348.94;;;14.01;76.37
71966;BME280;59836;52.132;5.442;2023-04-21T12:18:56;101342.13;;;13.93;75.19
71966;BME280;59836;52.132;5.442;2023-04-21T12:21:27;101343.00;;;13.83;75.89
71966;BME280;59836;52.132;5.442;2023-04-21T12:23:53;101331.00;;;13.84;75.84
71966;BME280;59836;52.132;5.442;2023-04-21T12:26:20;101331.56;;;13.81;76.01
71966;BME280;59836;52.132;5.442;2023-04-21T12:28:48;101326.84;;;13.97;75.28
71966;BME280;59836;52.132;5.442;2023-04-21T12:31:15;101325.94;;;14.17;75.72
71966;BME280;59836;52.132;5.442;2023-04-21T12:33:41;101329.63;;;14.32;75.79
71966;BME280;59836;52.132;5.442;2023-04-21T12:36:08;101324.97;;;14.38;75.20
71966;BME280;59836;52.132;5.442;2023-04-21T12:38:34;101326.75;;;14.53;74.42
71966;BME280;59836;52.132;5.442;2023-04-21T12:41:01;101315.53;;;14.59;73.17
71966;BME280;59836;52.132;5.442;2023-04-21T12:43:27;101307.69;;;14.47;72.81
71966;BME280;59836;52.132;5.442;2023-04-21T12:45:53;101305.88;;;14.38;73.60
71966;BME280;59836;52.132;5.442;2023-04-21T12:48:20;101306.69;;;14.33;73.79
71966;BME280;59836;52.132;5.442;2023-04-21T12:50:46;101309.22;;;14.24;73.60
71966;BME280;59836;52.132;5.442;2023-04-21T12:53:13;101300.50;;;14.22;74.60
71966;BME280;59836;52.132;5.442;2023-04-21T12:55:39;101291.00;;;14.20;74.52
71966;BME280;59836;52.132;5.442;2023-04-21T12:58:18;101295.38;;;14.15;74.26
71966;BME280;59836;52.132;5.442;2023-04-21T13:00:44;101289.44;;;14.08;73.95
71966;BME280;59836;52.132;5.442;2023-04-21T13:03:11;101292.19;;;14.03;74.96
71966;BME280;59836;52.132;5.442;2023-04-21T13:05:38;101292.75;;;14.00;74.56
71966;BME280;59836;52.132;5.442;2023-04-21T13:08:04;101290.56;;;14.02;74.18
71966;BME280;59836;52.132;5.442;2023-04-21T13:10:31;101285.63;;;14.04;73.89
71966;BME280;59836;52.132;5.442;2023-04-21T13:12:57;101283.41;;;14.11;74.31
71966;BME280;59836;52.132;5.442;2023-04-21T13:15:23;101278.94;;;14.26;74.14
71966;BME280;59836;52.132;5.442;2023-04-21T13:17:50;101272.09;;;14.28;74.38
71966;BME280;59836;52.132;5.442;2023-04-21T13:20:17;101267.47;;;14.29;74.55
71966;BME280;59836;52.132;5.442;2023-04-21T13:22:44;101268.03;;;14.26;74.17
71966;BME280;59836;52.132;5.442;2023-04-21T13:25:11;101261.53;;;14.22;74.47
71966;BME280;59836;52.132;5.442;2023-04-21T13:27:37;101262.66;;;14.15;74.41
